createdAt,value
2019-01-11T00:01:14.249Z,85.01
2019-01-11T00:02:15.206Z,85.77
2019-01-11T00:04:07.603Z,85.86
2019-01-11T00:05:06.796Z,86.15
2019-01-11T00:07:01.082Z,86.52
2019-01-11T00:08:00.471Z,87.37
2019-01-11T00:09:53.417Z,86.71
2019-01-11T00:10:54.246Z,86.62
2019-01-11T00:11:53.905Z,86.71
2019-01-11T00:12:53.875Z,87.66
2019-01-11T00:13:53.307Z,87.66
2019-01-11T00:14:54.250Z,87.47
2019-01-11T00:15:52.671Z,87.37
2019-01-11T00:16:52.436Z,86.99
2019-01-11T00:17:53.659Z,87.47
2019-01-11T00:18:52.063Z,87.47
2019-01-11T00:19:51.982Z,87.47
2019-01-11T00:20:51.960Z,87.75
2019-01-11T00:21:51.908Z,87.66
2019-01-11T00:22:51.862Z,88.13
2019-01-11T00:23:51.809Z,89.07
2019-01-11T00:24:51.777Z,89.54
2019-01-11T00:25:51.716Z,90.40
2019-01-11T00:26:51.669Z,89.45
2019-01-11T00:27:51.651Z,89.17
2019-01-11T00:28:51.560Z,88.98
2019-01-11T00:29:51.529Z,89.36
2019-01-11T00:30:51.469Z,89.50
2019-01-11T00:31:51.442Z,90.40
2019-01-11T00:32:51.605Z,90.16
2019-01-11T00:33:51.356Z,90.30
2019-01-11T00:34:51.294Z,90.40
2019-01-11T00:35:51.242Z,89.59
2019-01-11T00:36:51.187Z,90.07
2019-01-11T00:37:51.174Z,90.35
2019-01-11T00:38:51.083Z,90.82
2019-01-11T00:39:51.084Z,90.82
2019-01-11T00:40:51.026Z,90.35
2019-01-11T00:41:50.939Z,89.78
2019-01-11T00:42:50.912Z,89.78
2019-01-11T00:43:50.849Z,89.59
2019-01-11T00:44:50.821Z,89.50
2019-01-11T00:45:50.770Z,89.78
2019-01-11T00:46:50.738Z,89.40
2019-01-11T00:47:50.658Z,88.65
2019-01-11T00:48:51.804Z,88.65
2019-01-11T00:49:50.575Z,88.28
2019-01-11T00:50:50.549Z,87.71
2019-01-11T00:51:50.506Z,87.18
2019-01-11T00:52:50.432Z,86.99
2019-01-11T00:53:50.394Z,86.57
2019-01-11T00:54:50.363Z,86.52
2019-01-11T00:55:50.335Z,86.33
2019-01-11T00:56:50.283Z,85.77
2019-01-11T00:57:50.298Z,85.77
2019-01-11T00:58:50.170Z,85.11
2019-01-11T00:59:50.084Z,85.11
2019-01-11T01:00:50.038Z,84.64
2019-01-11T01:01:50.046Z,84.35
2019-01-11T01:02:49.960Z,85.01
2019-01-11T01:03:49.919Z,84.73
2019-01-11T01:04:49.877Z,85.58
2019-01-11T01:05:49.821Z,85.86
2019-01-11T01:06:49.779Z,85.77
2019-01-11T01:07:49.743Z,85.96
2019-01-11T01:08:49.703Z,86.62
2019-01-11T01:09:49.641Z,86.62
2019-01-11T01:10:49.582Z,86.80
2019-01-11T01:11:49.524Z,86.15
2019-01-11T01:12:49.475Z,85.96
2019-01-11T01:13:49.483Z,86.52
2019-01-11T01:14:49.405Z,86.52
2019-01-11T01:15:49.354Z,86.90
2019-01-11T01:16:49.307Z,86.90
2019-01-11T01:17:49.271Z,86.52
2019-01-11T01:18:49.237Z,86.43
2019-01-11T01:19:49.148Z,87.47
2019-01-11T01:20:49.137Z,87.47
2019-01-11T01:21:49.071Z,87.85
2019-01-11T01:23:24.873Z,87.66
2019-01-11T01:23:48.977Z,87.85
2019-01-11T01:24:48.934Z,88.42
2019-01-11T01:25:48.884Z,88.42
2019-01-11T01:26:48.831Z,88.04
2019-01-11T01:27:48.770Z,87.56
2019-01-11T01:28:48.735Z,87.47
2019-01-11T01:29:48.676Z,88.04
2019-01-11T01:30:48.636Z,87.85
2019-01-11T01:31:48.588Z,87.47
2019-01-11T01:34:21.335Z,88.60
2019-01-11T01:35:22.019Z,88.42
2019-01-11T01:37:14.274Z,88.32
2019-01-11T01:38:13.564Z,88.51
2019-01-11T01:40:07.754Z,88.13
2019-01-11T01:41:08.183Z,88.60
2019-01-11T01:43:00.957Z,88.51
2019-01-11T01:43:59.405Z,88.42
2019-01-11T01:45:55.695Z,88.04
2019-01-11T01:46:54.079Z,88.13
2019-01-11T01:48:47.121Z,87.47
2019-01-11T01:49:48.049Z,87.75
2019-01-11T01:51:40.572Z,87.94
2019-01-11T01:52:39.589Z,87.56
2019-01-11T01:54:33.773Z,87.47
2019-01-11T01:55:32.651Z,87.56
2019-01-11T01:57:27.025Z,87.47
2019-01-11T01:58:27.461Z,87.37
2019-01-11T02:00:20.971Z,87.75
2019-01-11T02:01:20.357Z,88.04
2019-01-11T02:03:15.213Z,87.66
2019-01-11T02:04:14.394Z,87.47
2019-01-11T02:06:06.875Z,87.66
2019-01-11T02:07:06.128Z,87.94
2019-01-11T02:08:59.358Z,87.85
2019-01-11T02:09:59.045Z,87.85
2019-01-11T02:11:53.324Z,87.94
2019-01-11T02:12:52.752Z,88.13
2019-01-11T02:14:47.825Z,87.75
2019-01-11T02:15:48.023Z,88.32
2019-01-11T02:17:40.444Z,87.66
2019-01-11T02:18:39.319Z,87.66
2019-01-11T02:20:34.324Z,87.94
2019-01-11T02:21:33.853Z,87.94
2019-01-11T02:23:26.885Z,88.51
2019-01-11T02:24:26.908Z,88.51
2019-01-11T02:26:19.539Z,88.42
2019-01-11T02:27:18.202Z,88.23
2019-01-11T02:29:12.015Z,88.79
2019-01-11T02:30:12.406Z,88.98
2019-01-11T02:32:05.428Z,89.17
2019-01-11T02:33:04.115Z,88.98
2019-01-11T02:34:59.455Z,88.04
2019-01-11T02:35:59.323Z,87.66
2019-01-11T02:37:53.051Z,87.94
2019-01-11T02:38:52.263Z,88.79
2019-01-11T02:40:45.810Z,88.70
2019-01-11T02:41:44.587Z,88.98
2019-01-11T02:43:38.270Z,88.42
2019-01-11T02:44:38.714Z,88.70
2019-01-11T02:46:30.712Z,88.70
2019-01-11T02:47:31.934Z,88.79
2019-01-11T02:49:26.260Z,88.70
2019-01-11T02:50:25.907Z,88.79
2019-01-11T02:52:19.186Z,89.64
2019-01-11T02:53:18.837Z,89.92
2019-01-11T02:55:12.166Z,90.40
2019-01-11T02:56:10.793Z,89.92
2019-01-11T02:58:04.509Z,89.83
2019-01-11T02:59:04.494Z,90.21
2019-01-11T03:00:57.733Z,90.21
2019-01-11T03:01:56.955Z,90.11
2019-01-11T03:03:50.469Z,89.64
2019-01-11T03:04:51.453Z,89.83
2019-01-11T03:06:44.434Z,89.45
2019-01-11T03:07:43.336Z,89.83
2019-01-11T03:09:49.749Z,89.45
2019-01-11T03:10:49.124Z,89.17
2019-01-11T03:12:41.758Z,89.26
2019-01-11T03:13:41.435Z,89.17
2019-01-11T03:15:47.720Z,89.26
2019-01-11T03:16:45.681Z,89.07
2019-01-11T03:18:40.760Z,89.45
2019-01-11T03:19:39.413Z,88.89
2019-01-11T03:21:44.191Z,88.89
2019-01-11T03:22:43.977Z,88.98
2019-01-11T03:24:39.008Z,88.70
2019-01-11T03:25:38.367Z,88.98
2019-01-11T03:27:32.760Z,89.26
2019-01-11T03:28:32.911Z,89.36
2019-01-11T03:30:25.697Z,89.64
2019-01-11T03:31:24.372Z,90.11
2019-01-11T03:33:18.090Z,89.64
2019-01-11T03:34:18.335Z,90.49
2019-01-11T03:36:11.620Z,90.40
2019-01-11T03:37:11.262Z,90.49
2019-01-11T03:39:04.550Z,90.30
2019-01-11T03:40:03.932Z,90.02
2019-01-11T03:41:57.479Z,89.83
2019-01-11T03:42:55.974Z,90.02
2019-01-11T03:44:51.011Z,89.45
2019-01-11T03:45:50.656Z,88.89
2019-01-11T03:47:43.873Z,87.37
2019-01-11T03:48:43.584Z,87.18
2019-01-11T03:50:37.922Z,86.33
2019-01-11T03:51:37.284Z,85.86
2019-01-11T03:53:30.526Z,85.68
2019-01-11T03:54:29.421Z,85.49
2019-01-11T03:56:23.293Z,85.86
2019-01-11T03:57:23.509Z,85.49
2019-01-11T03:59:16.758Z,85.68
2019-01-11T04:00:16.693Z,85.58
2019-01-11T04:02:09.957Z,85.01
2019-01-11T04:03:09.427Z,85.86
2019-01-11T04:05:04.192Z,85.77
2019-01-11T04:06:04.365Z,85.39
2019-01-11T04:07:57.145Z,85.68
2019-01-11T04:08:57.327Z,85.68
2019-01-11T04:10:49.624Z,84.92
2019-01-11T04:11:49.056Z,84.64
2019-01-11T04:13:43.067Z,84.35
2019-01-11T04:14:41.854Z,84.45
2019-01-11T04:16:36.019Z,84.26
2019-01-11T04:17:34.668Z,84.73
2019-01-11T04:19:29.549Z,84.92
2019-01-11T04:20:29.412Z,84.92
2019-01-11T04:22:23.482Z,84.07
2019-01-11T04:23:23.375Z,83.78
2019-01-11T04:25:16.630Z,83.50
2019-01-11T04:26:15.089Z,83.40
2019-01-11T04:28:09.082Z,83.50
2019-01-11T04:29:09.570Z,83.59
2019-01-11T04:31:02.499Z,83.64
2019-01-11T04:32:02.020Z,83.22
2019-01-11T04:33:55.323Z,83.97
2019-01-11T04:34:54.694Z,83.59
2019-01-11T04:36:48.430Z,84.07
2019-01-11T04:37:48.436Z,83.50
2019-01-11T04:39:54.055Z,83.64
2019-01-11T04:40:52.779Z,83.22
2019-01-11T04:42:46.325Z,83.73
2019-01-11T04:43:45.993Z,83.07
2019-01-11T04:45:52.222Z,82.65
2019-01-11T04:46:52.057Z,82.88
2019-01-11T04:48:46.511Z,82.09
2019-01-11T04:49:44.780Z,81.42
2019-01-11T04:51:39.629Z,81.93
2019-01-11T04:52:37.635Z,81.61
2019-01-11T04:54:32.413Z,81.46
2019-01-11T04:55:31.244Z,81.84
2019-01-11T04:57:25.332Z,81.46
2019-01-11T04:58:25.259Z,81.33
2019-01-11T05:00:17.982Z,81.61
2019-01-11T05:01:16.531Z,82.50
2019-01-11T05:03:11.381Z,82.22
2019-01-11T05:04:10.957Z,82.60
2019-01-11T05:06:04.286Z,82.50
2019-01-11T05:07:02.468Z,82.50
2019-01-11T05:08:58.225Z,81.93
2019-01-11T05:09:57.185Z,81.27
2019-01-11T05:11:51.731Z,80.90
2019-01-11T05:12:50.186Z,80.99
2019-01-11T05:14:44.147Z,80.90
2019-01-11T05:15:43.326Z,81.74
2019-01-11T05:17:37.054Z,80.90
2019-01-11T05:18:35.875Z,80.80
2019-01-11T05:20:31.734Z,81.65
2019-01-11T05:21:30.278Z,81.65
2019-01-11T05:23:24.993Z,81.84
2019-01-11T05:24:24.310Z,81.93
2019-01-11T05:26:17.429Z,82.22
2019-01-11T05:27:17.633Z,82.22
2019-01-11T05:29:11.834Z,82.31
2019-01-11T05:30:12.796Z,82.88
2019-01-11T05:32:05.890Z,82.50
2019-01-11T05:33:04.516Z,82.60
2019-01-11T05:34:57.962Z,82.79
2019-01-11T05:35:57.088Z,83.17
2019-01-11T05:37:51.201Z,82.98
2019-01-11T05:38:49.990Z,82.98
2019-01-11T05:40:46.215Z,83.54
2019-01-11T05:41:45.867Z,83.07
2019-01-11T05:43:38.658Z,83.26
2019-01-11T05:44:37.476Z,83.83
2019-01-11T05:46:32.210Z,84.20
2019-01-11T05:47:31.762Z,84.20
2019-01-11T05:49:24.738Z,84.77
2019-01-11T05:50:24.388Z,84.30
2019-01-11T05:52:17.721Z,83.45
2019-01-11T05:53:17.718Z,83.64
2019-01-11T05:55:11.090Z,82.12
2019-01-11T05:56:10.665Z,82.31
2019-01-11T05:58:05.519Z,81.84
2019-01-11T05:59:04.362Z,82.12
2019-01-11T06:00:04.845Z,81.84
2019-01-11T06:01:03.603Z,82.03
2019-01-11T06:02:05.203Z,82.79
2019-01-11T06:03:05.095Z,82.88
2019-01-11T06:04:04.634Z,82.60
2019-01-11T06:05:05.131Z,82.60
2019-01-11T06:06:05.118Z,82.88
2019-01-11T06:07:05.075Z,82.60
2019-01-11T06:08:04.637Z,82.79
2019-01-11T06:09:04.936Z,82.69
2019-01-11T06:10:04.367Z,82.50
2019-01-11T06:11:04.825Z,82.69
2019-01-11T06:12:04.863Z,82.22
2019-01-11T06:13:04.220Z,81.93
2019-01-11T06:14:04.876Z,81.84
2019-01-11T06:15:04.662Z,81.65
2019-01-11T06:16:03.585Z,81.65
2019-01-11T06:17:04.045Z,81.56
2019-01-11T06:18:03.463Z,81.65
2019-01-11T06:19:04.437Z,80.90
2019-01-11T06:20:04.618Z,80.80
2019-01-11T06:21:04.499Z,80.62
2019-01-11T06:22:04.143Z,80.99
2019-01-11T06:23:04.098Z,80.24
2019-01-11T06:24:04.318Z,80.14
2019-01-11T06:25:04.320Z,80.14
2019-01-11T06:26:04.395Z,80.33
2019-01-11T06:27:02.870Z,80.24
2019-01-11T06:28:04.144Z,79.48
2019-01-11T06:29:04.073Z,79.76
2019-01-11T06:30:04.013Z,79.48
2019-01-11T06:31:03.129Z,79.00
2019-01-11T06:32:03.887Z,79.29
2019-01-11T06:33:03.617Z,79.38
2019-01-11T06:34:05.069Z,79.38
2019-01-11T06:35:03.909Z,79.86
2019-01-11T06:36:03.808Z,80.14
2019-01-11T06:37:03.140Z,80.24
2019-01-11T06:38:03.614Z,80.71
2019-01-11T06:39:03.495Z,80.99
2019-01-11T06:40:03.509Z,81.09
2019-01-11T06:41:03.493Z,81.74
2019-01-11T06:42:03.437Z,81.09
2019-01-11T06:43:03.564Z,81.18
2019-01-11T06:44:03.412Z,81.09
2019-01-11T06:45:03.291Z,81.27
2019-01-11T06:46:03.330Z,81.56
2019-01-11T06:47:03.281Z,81.18
2019-01-11T06:48:03.202Z,80.80
2019-01-11T06:49:03.108Z,81.65
2019-01-11T06:50:03.111Z,80.80
2019-01-11T06:51:02.470Z,80.80
2019-01-11T06:52:02.402Z,80.71
2019-01-11T06:53:02.373Z,81.46
2019-01-11T06:54:03.026Z,81.46
2019-01-11T06:55:02.861Z,81.46
2019-01-11T06:56:02.856Z,81.46
2019-01-11T06:57:02.819Z,80.99
2019-01-11T06:58:02.817Z,81.37
2019-01-11T06:59:02.603Z,80.99
2019-01-11T07:00:02.941Z,81.65
2019-01-11T07:01:02.609Z,81.37
2019-01-11T07:02:02.370Z,81.18
2019-01-11T07:03:01.920Z,81.65
2019-01-11T07:04:02.433Z,81.65
2019-01-11T07:05:01.292Z,80.90
2019-01-11T07:06:02.391Z,81.37
2019-01-11T07:07:02.558Z,81.74
2019-01-11T07:08:02.336Z,81.46
2019-01-11T07:09:02.341Z,81.65
2019-01-11T07:10:01.649Z,81.46
2019-01-11T07:11:02.100Z,82.12
2019-01-11T07:12:02.080Z,81.65
2019-01-11T07:13:02.031Z,82.22
2019-01-11T07:14:00.877Z,82.31
2019-01-11T07:15:01.898Z,82.60
2019-01-11T07:16:02.099Z,82.60
2019-01-11T07:17:01.801Z,82.22
2019-01-11T07:18:01.884Z,82.69
2019-01-11T07:19:01.769Z,82.41
2019-01-11T07:20:05.369Z,82.88
2019-01-11T07:21:01.824Z,82.12
2019-01-11T07:22:00.248Z,82.31
2019-01-11T07:23:00.979Z,82.12
2019-01-11T07:24:01.148Z,82.12
2019-01-11T07:24:59.690Z,82.31
2019-01-11T07:26:01.292Z,82.31
2019-01-11T07:26:59.258Z,83.07
2019-01-11T07:27:59.171Z,83.07
2019-01-11T07:28:59.137Z,83.07
2019-01-11T07:29:59.085Z,82.69
2019-01-11T07:30:59.055Z,83.73
2019-01-11T07:31:59.052Z,83.54
2019-01-11T07:32:58.970Z,83.54
2019-01-11T07:33:58.896Z,83.54
2019-01-11T07:34:58.869Z,82.98
2019-01-11T07:35:58.825Z,83.02
2019-01-11T07:36:58.767Z,82.88
2019-01-11T07:37:58.719Z,82.79
2019-01-11T07:38:58.669Z,82.12
2019-01-11T07:39:58.615Z,82.26
2019-01-11T07:40:58.574Z,82.17
2019-01-11T07:41:58.537Z,81.98
2019-01-11T07:42:58.490Z,82.83
2019-01-11T07:43:58.440Z,82.60
2019-01-11T07:44:58.394Z,82.98
2019-01-11T07:45:58.388Z,82.35
2019-01-11T07:46:58.333Z,81.88
2019-01-11T07:47:58.254Z,81.60
2019-01-11T07:48:58.242Z,81.79
2019-01-11T07:49:58.176Z,83.30
2019-01-11T07:50:58.127Z,83.54
2019-01-11T07:51:58.066Z,83.40
2019-01-11T07:52:58.036Z,82.83
2019-01-11T07:53:57.981Z,83.49
2019-01-11T07:54:57.921Z,83.30
2019-01-11T07:55:57.893Z,83.49
2019-01-11T07:56:57.823Z,83.49
2019-01-11T07:57:57.806Z,83.59
2019-01-11T07:58:57.755Z,83.40
2019-01-11T07:59:57.710Z,83.68
2019-01-11T08:00:57.667Z,82.45
2019-01-11T08:01:57.611Z,83.21
2019-01-11T08:02:57.579Z,82.73
2019-01-11T08:03:57.525Z,83.40
2019-01-11T08:04:57.471Z,82.83
2019-01-11T08:05:57.458Z,83.11
2019-01-11T08:06:57.379Z,83.02
2019-01-11T08:07:57.349Z,83.21
2019-01-11T08:08:57.305Z,83.40
2019-01-11T08:09:57.264Z,83.59
2019-01-11T08:10:57.194Z,83.78
2019-01-11T08:11:57.185Z,83.49
2019-01-11T08:12:57.102Z,84.25
2019-01-11T08:13:57.082Z,83.40
2019-01-11T08:14:57.024Z,84.53
2019-01-11T08:15:56.962Z,84.91
2019-01-11T08:16:56.931Z,84.44
2019-01-11T08:17:56.876Z,84.25
2019-01-11T08:18:56.827Z,85.00
2019-01-11T08:19:56.794Z,85.28
2019-01-11T08:20:56.746Z,85.00
2019-01-11T08:21:56.695Z,85.38
2019-01-11T08:22:56.628Z,85.85
2019-01-11T08:23:56.593Z,85.85
2019-01-11T08:24:56.611Z,85.19
2019-01-11T08:25:56.509Z,84.81
2019-01-11T08:26:56.450Z,84.34
2019-01-11T08:27:56.409Z,84.53
2019-01-11T08:28:56.361Z,85.10
2019-01-11T08:29:56.331Z,85.85
2019-01-11T08:30:56.279Z,85.95
2019-01-11T08:31:56.212Z,86.42
2019-01-11T08:32:56.178Z,86.42
2019-01-11T08:33:56.181Z,86.71
2019-01-11T08:34:56.063Z,87.74
2019-01-11T08:35:56.036Z,87.37
2019-01-11T08:36:56.004Z,87.08
2019-01-11T08:37:55.943Z,87.55
2019-01-11T08:38:57.765Z,87.65
2019-01-11T08:39:55.847Z,87.65
2019-01-11T08:40:55.822Z,86.90
2019-01-11T08:41:55.794Z,87.08
2019-01-11T08:42:55.702Z,87.65
2019-01-11T08:43:55.687Z,87.93
2019-01-11T08:44:55.623Z,88.88
2019-01-11T08:45:55.585Z,90.86
2019-01-11T08:46:55.529Z,90.86
2019-01-11T08:47:55.475Z,89.64
2019-01-11T08:48:55.430Z,91.05
2019-01-11T08:49:55.374Z,92.00
2019-01-11T08:50:55.347Z,92.10
2019-01-11T08:51:55.322Z,91.77
2019-01-11T08:52:55.251Z,93.42
2019-01-11T08:53:55.207Z,93.13
2019-01-11T08:54:55.164Z,92.99
2019-01-11T08:55:55.114Z,93.66
2019-01-11T08:56:55.059Z,93.75
2019-01-11T08:57:55.024Z,95.88
2019-01-11T08:58:55.037Z,94.37
2019-01-11T08:59:54.924Z,95.59
2019-01-11T09:00:54.878Z,95.69
2019-01-11T09:01:54.828Z,96.02
2019-01-11T09:02:54.816Z,94.37
2019-01-11T09:03:54.752Z,93.28
2019-01-11T09:04:54.707Z,92.43
2019-01-11T09:05:54.662Z,92.61
2019-01-11T09:06:54.638Z,92.43
2019-01-11T09:07:54.568Z,92.05
2019-01-11T09:08:54.522Z,91.77
2019-01-11T09:09:54.463Z,91.67
2019-01-11T09:10:54.425Z,93.28
2019-01-11T09:11:54.389Z,92.71
2019-01-11T09:12:54.339Z,95.07
2019-01-11T09:13:54.286Z,94.79
2019-01-11T09:14:54.244Z,94.60
2019-01-11T09:15:54.187Z,93.75
2019-01-11T09:16:54.149Z,95.07
2019-01-11T09:17:54.099Z,96.35
2019-01-11T09:18:54.104Z,95.97
2019-01-11T09:19:54.029Z,94.89
2019-01-11T09:20:53.969Z,94.42
2019-01-11T09:21:53.928Z,95.36
2019-01-11T09:22:53.891Z,96.78
2019-01-11T09:23:53.842Z,95.26
2019-01-11T09:24:53.789Z,94.60
2019-01-11T09:25:53.742Z,92.43
2019-01-11T09:26:53.706Z,92.52
2019-01-11T09:27:53.651Z,92.43
2019-01-11T09:28:53.610Z,92.61
2019-01-11T09:29:53.551Z,95.07
2019-01-11T09:30:53.520Z,94.79
2019-01-11T09:31:53.502Z,95.64
2019-01-11T09:32:53.540Z,96.02
2019-01-11T09:33:53.358Z,98.20
2019-01-11T09:34:53.320Z,96.88
2019-01-11T09:35:53.313Z,95.83
2019-01-11T09:36:53.252Z,96.40
2019-01-11T09:37:53.204Z,98.01
2019-01-11T09:38:53.147Z,95.93
2019-01-11T09:39:53.107Z,95.07
2019-01-11T09:40:53.075Z,96.40
2019-01-11T09:41:53.033Z,96.21
2019-01-11T09:42:52.961Z,96.50
2019-01-11T09:43:52.917Z,98.67
2019-01-11T09:44:52.886Z,97.53
2019-01-11T09:45:52.819Z,97.25
2019-01-11T09:46:52.808Z,98.96
2019-01-11T09:47:52.735Z,97.34
2019-01-11T09:48:52.697Z,98.10
2019-01-11T09:49:52.737Z,96.21
2019-01-11T09:50:52.606Z,95.45
2019-01-11T09:51:52.611Z,94.42
2019-01-11T09:52:52.514Z,94.23
2019-01-11T09:53:52.460Z,93.47
2019-01-11T09:54:52.553Z,94.04
2019-01-11T09:55:52.436Z,96.12
2019-01-11T09:56:52.392Z,95.45
2019-01-11T09:57:52.274Z,95.55
2019-01-11T09:58:52.244Z,95.07
2019-01-11T09:59:52.182Z,96.97
2019-01-11T10:00:59.104Z,97.53
2019-01-11T10:01:52.097Z,95.74
2019-01-11T10:02:52.055Z,95.55
2019-01-11T10:03:52.002Z,94.51
2019-01-11T10:04:52.010Z,93.85
2019-01-11T10:05:51.921Z,93.85
2019-01-11T10:06:51.873Z,92.52
2019-01-11T10:07:51.833Z,92.80
2019-01-11T10:08:51.795Z,93.37
2019-01-11T10:09:51.744Z,95.36
2019-01-11T10:10:51.695Z,94.89
2019-01-11T10:11:51.655Z,94.04
2019-01-11T10:12:51.612Z,93.28
2019-01-11T10:13:51.570Z,92.52
2019-01-11T10:14:51.527Z,92.33
2019-01-11T10:15:51.479Z,90.44
2019-01-11T10:16:51.407Z,89.97
2019-01-11T10:17:51.372Z,92.14
2019-01-11T10:18:51.317Z,92.61
2019-01-11T10:19:51.293Z,93.75
2019-01-11T10:20:51.230Z,92.80
2019-01-11T10:21:52.529Z,92.24
2019-01-11T10:22:51.165Z,95.07
2019-01-11T10:23:51.083Z,97.91
2019-01-11T10:24:51.067Z,98.77
2019-01-11T10:25:51.034Z,97.53
2019-01-11T10:26:50.963Z,98.67
2019-01-11T10:27:50.929Z,99.99
2019-01-11T10:28:50.865Z,99.24
2019-01-11T10:29:50.835Z,98.20
2019-01-11T10:30:50.773Z,99.05
2019-01-11T10:31:50.754Z,98.48
2019-01-11T10:32:50.718Z,99.33
2019-01-11T10:33:50.662Z,99.15
2019-01-11T10:34:50.613Z,97.53
2019-01-11T10:35:50.556Z,96.78
2019-01-11T10:36:50.522Z,97.82
2019-01-11T10:37:50.488Z,99.24
2019-01-11T10:38:50.424Z,97.34
2019-01-11T10:39:50.389Z,97.72
2019-01-11T10:40:50.333Z,97.16
2019-01-11T10:41:50.269Z,97.91
2019-01-11T10:42:50.237Z,96.69
2019-01-11T10:43:50.247Z,96.31
2019-01-11T10:44:50.170Z,94.98
2019-01-11T10:45:50.095Z,94.32
2019-01-11T10:46:50.047Z,93.47
2019-01-11T10:47:50.012Z,94.79
2019-01-11T10:48:49.962Z,95.93
2019-01-11T10:49:49.939Z,96.50
2019-01-11T10:50:49.898Z,97.82
2019-01-11T10:51:49.850Z,97.82
2019-01-11T10:52:49.782Z,97.91
2019-01-11T10:53:49.768Z,96.50
2019-01-11T10:54:49.689Z,95.55
2019-01-11T10:55:49.650Z,95.17
2019-01-11T10:56:49.611Z,95.07
2019-01-11T10:57:49.560Z,96.40
2019-01-11T10:58:49.522Z,96.78
2019-01-11T10:59:49.468Z,97.16
2019-01-11T11:00:49.418Z,96.02
2019-01-11T11:01:49.358Z,96.50
2019-01-11T11:02:49.334Z,97.72
2019-01-11T11:03:49.278Z,95.45
2019-01-11T11:04:49.242Z,94.60
2019-01-11T11:05:49.197Z,93.75
2019-01-11T11:06:49.196Z,93.18
2019-01-11T11:07:49.109Z,94.51
2019-01-11T11:08:49.064Z,96.21
2019-01-11T11:09:49.004Z,95.74
2019-01-11T11:10:49.001Z,98.01
2019-01-11T11:11:48.938Z,96.59
2019-01-11T11:12:48.953Z,94.23
2019-01-11T11:13:48.851Z,94.60
2019-01-11T11:14:48.786Z,96.40
2019-01-11T11:15:48.730Z,96.88
2019-01-11T11:16:48.694Z,96.21
2019-01-11T11:17:48.658Z,95.55
2019-01-11T11:18:48.683Z,95.93
2019-01-11T11:19:48.586Z,97.06
2019-01-11T11:20:48.562Z,99.43
2019-01-11T11:21:48.470Z,99.43
2019-01-11T11:22:48.439Z,99.24
2019-01-11T11:23:48.457Z,99.24
2019-01-11T11:24:48.334Z,99.80
2019-01-11T11:25:48.346Z,99.99
2019-01-11T11:26:48.245Z,99.99
2019-01-11T11:27:48.200Z,99.99
2019-01-11T11:28:48.170Z,99.99
2019-01-11T11:29:48.105Z,99.99
2019-01-11T11:30:50.985Z,99.99
2019-01-11T11:31:48.012Z,99.99
2019-01-11T11:32:47.968Z,99.99
2019-01-11T11:33:47.935Z,99.99
2019-01-11T11:34:47.873Z,99.99
2019-01-11T11:35:47.833Z,99.99
2019-01-11T11:36:47.858Z,99.99
2019-01-11T11:37:47.771Z,99.99
2019-01-11T11:38:47.727Z,99.99
2019-01-11T11:39:47.663Z,99.99
2019-01-11T11:40:47.620Z,99.99
2019-01-11T11:41:47.574Z,99.99
2019-01-11T11:42:47.545Z,99.01
2019-01-11T11:43:47.476Z,99.48
2019-01-11T11:44:47.421Z,99.99
2019-01-11T11:45:47.402Z,99.99
2019-01-11T11:46:47.367Z,99.99
2019-01-11T11:47:47.299Z,99.99
2019-01-11T11:48:47.272Z,99.99
2019-01-11T11:49:47.264Z,99.99
2019-01-11T11:50:47.168Z,99.99
2019-01-11T11:51:47.130Z,99.99
2019-01-11T11:52:47.080Z,99.99
2019-01-11T11:53:47.026Z,99.99
2019-01-11T11:54:46.991Z,99.99
2019-01-11T11:55:46.937Z,99.99
2019-01-11T11:56:46.890Z,99.99
2019-01-11T11:57:46.858Z,99.99
2019-01-11T11:58:46.790Z,99.99
2019-01-11T11:59:46.773Z,99.99
2019-01-11T12:00:46.721Z,99.99
2019-01-11T12:01:46.859Z,99.99
2019-01-11T12:02:46.635Z,99.99
2019-01-11T12:03:46.591Z,99.99
2019-01-11T12:04:46.529Z,99.99
2019-01-11T12:05:46.515Z,99.99
2019-01-11T12:06:46.440Z,99.99
2019-01-11T12:07:46.445Z,99.99
2019-01-11T12:08:46.365Z,99.99
2019-01-11T12:09:46.307Z,99.99
2019-01-11T12:10:46.278Z,99.99
2019-01-11T12:11:46.236Z,99.99
2019-01-11T12:12:46.208Z,99.99
2019-01-11T12:13:46.133Z,99.99
2019-01-11T12:14:46.103Z,99.99
2019-01-11T12:15:46.039Z,99.99
2019-01-11T12:16:46.015Z,99.99
2019-01-11T12:17:45.980Z,99.99
2019-01-11T12:18:45.930Z,99.99
2019-01-11T12:19:45.877Z,99.99
2019-01-11T12:20:45.835Z,99.99
2019-01-11T12:21:47.899Z,99.99
2019-01-11T12:22:45.744Z,99.99
2019-01-11T12:23:45.686Z,99.99
2019-01-11T12:24:45.630Z,99.99
2019-01-11T12:25:47.031Z,99.99
2019-01-11T12:26:45.670Z,99.99
2019-01-11T12:27:45.551Z,99.99
2019-01-11T12:28:45.560Z,99.99
2019-01-11T12:29:45.403Z,99.52
2019-01-11T12:30:45.385Z,98.77
2019-01-11T12:31:45.355Z,98.15
2019-01-11T12:32:45.289Z,99.80
2019-01-11T12:33:45.334Z,99.05
2019-01-11T12:34:45.198Z,97.72
2019-01-11T12:35:45.137Z,97.82
2019-01-11T12:36:45.129Z,97.44
2019-01-11T12:37:45.056Z,99.43
2019-01-11T12:38:45.009Z,99.10
2019-01-11T12:39:44.969Z,97.96
2019-01-11T12:40:44.970Z,99.62
2019-01-11T12:41:44.882Z,99.99
2019-01-11T12:42:44.838Z,99.99
2019-01-11T12:43:44.781Z,99.99
2019-01-11T12:44:44.738Z,99.99
2019-01-11T12:45:44.744Z,99.99
2019-01-11T12:46:44.647Z,99.19
2019-01-11T12:47:44.603Z,98.63
2019-01-11T12:48:44.560Z,99.99
2019-01-11T12:49:44.518Z,99.29
2019-01-11T12:50:44.552Z,97.30
2019-01-11T12:51:44.423Z,99.10
2019-01-11T12:52:44.406Z,99.48
2019-01-11T12:53:44.335Z,99.99
2019-01-11T12:54:44.321Z,99.99
2019-01-11T12:55:44.253Z,99.99
2019-01-11T12:56:44.252Z,99.99
2019-01-11T12:57:44.185Z,99.99
2019-01-11T12:58:44.112Z,99.99
2019-01-11T12:59:44.065Z,99.99
2019-01-11T13:00:44.033Z,99.99
2019-01-11T13:01:44.025Z,99.99
2019-01-11T13:02:43.933Z,99.99
2019-01-11T13:03:43.920Z,99.99
2019-01-11T13:04:43.858Z,99.99
2019-01-11T13:05:43.836Z,99.99
2019-01-11T13:06:43.770Z,99.99
2019-01-11T13:07:43.728Z,99.99
2019-01-11T13:08:43.671Z,99.99
2019-01-11T13:09:43.628Z,99.99
2019-01-11T13:10:43.574Z,99.99
2019-01-11T13:11:43.545Z,99.99
2019-01-11T13:12:43.496Z,99.99
2019-01-11T13:13:44.196Z,99.99
2019-01-11T13:14:43.402Z,99.48
2019-01-11T13:15:43.359Z,99.66
2019-01-11T13:16:43.317Z,99.48
2019-01-11T13:17:43.270Z,99.10
2019-01-11T13:18:43.227Z,97.53
2019-01-11T13:19:43.172Z,95.78
2019-01-11T13:20:43.143Z,95.83
2019-01-11T13:21:43.104Z,96.21
2019-01-11T13:22:43.045Z,94.60
2019-01-11T13:23:43.006Z,94.74
2019-01-11T13:24:42.959Z,94.98
2019-01-11T13:25:42.927Z,95.36
2019-01-11T13:26:42.878Z,94.79
2019-01-11T13:27:42.826Z,93.99
2019-01-11T13:28:42.788Z,94.08
2019-01-11T13:29:42.727Z,92.61
2019-01-11T13:30:42.682Z,91.81
2019-01-11T13:31:42.692Z,92.38
2019-01-11T13:32:42.598Z,92.85
2019-01-11T13:33:42.552Z,92.38
2019-01-11T13:34:42.513Z,92.47
2019-01-11T13:35:42.456Z,92.19
2019-01-11T13:36:42.423Z,93.32
2019-01-11T13:37:42.371Z,94.56
2019-01-11T13:38:42.329Z,94.65
2019-01-11T13:39:42.326Z,93.32
2019-01-11T13:40:42.226Z,92.38
2019-01-11T13:41:42.207Z,91.48
2019-01-11T13:42:42.140Z,90.39
2019-01-11T13:43:42.144Z,89.54
2019-01-11T13:44:42.048Z,90.11
2019-01-11T13:45:42.014Z,91.62
2019-01-11T13:46:41.971Z,91.81
2019-01-11T13:47:41.926Z,92.10
2019-01-11T13:48:41.874Z,93.99
2019-01-11T13:49:41.827Z,94.18
2019-01-11T13:50:41.822Z,93.75
2019-01-11T13:51:41.736Z,92.33
2019-01-11T13:52:41.693Z,92.10
2019-01-11T13:53:41.685Z,92.57
2019-01-11T13:54:41.625Z,92.47
2019-01-11T13:55:41.582Z,92.38
2019-01-11T13:56:41.525Z,92.47
2019-01-11T13:57:41.475Z,92.29
2019-01-11T13:58:41.435Z,91.43
2019-01-11T13:59:41.702Z,92.47
2019-01-11T14:00:41.335Z,91.81
2019-01-11T14:01:41.315Z,92.29
2019-01-11T14:02:41.274Z,92.00
2019-01-11T14:03:41.208Z,92.29
2019-01-11T14:04:41.184Z,89.82
2019-01-11T14:05:41.138Z,89.63
2019-01-11T14:06:41.097Z,88.97
2019-01-11T14:07:41.031Z,88.78
2019-01-11T14:08:41.008Z,88.49
2019-01-11T14:09:40.949Z,89.16
2019-01-11T14:10:40.909Z,88.59
2019-01-11T14:11:40.850Z,88.68
2019-01-11T14:12:40.807Z,88.49
2019-01-11T14:13:40.759Z,89.06
2019-01-11T14:14:41.209Z,88.31
2019-01-11T14:15:40.678Z,88.02
2019-01-11T14:16:40.670Z,87.17
2019-01-11T14:17:40.596Z,86.89
2019-01-11T14:18:40.531Z,85.85